Time;durP1;ratioP1;P1;durP2;ratioP2;P2;SDS_P1;SDS_P2;PMS_P1;PMS_P2;Temp;Humidity;BMP_temperature;BMP_pressure;BME280_temperature;BME280_humidity;BME280_pressure;Samples;Min_cycle;Max_cycle;Signal;HPM_P1;HPM_P2
2023/07/03 00:05:00;;;;;;;13.30;5.43;;;;;;;15.67;51.49;99711.66;10193055;29;20047;-76
2023/07/03 00:10:06;;;;;;;13.70;6.00;;;;;;;15.53;52.11;99723.22;10190276;29;20220;-76
2023/07/03 00:15:10;;;;;;;10.65;4.93;;;;;;;15.50;51.80;99718.13;10199355;29;20515;-75
2023/07/03 00:20:14;;;;;;;14.88;5.50;;;;;;;15.50;52.45;99720.00;10197328;29;20047;-75
2023/07/03 00:25:19;;;;;;;14.27;5.57;;;;;;;15.52;53.07;99713.38;10197719;29;20047;-75
2023/07/03 00:30:21;;;;;;;13.88;5.45;;;;;;;15.18;54.12;99721.69;10196607;29;20074;-75
2023/07/03 00:35:25;;;;;;;12.63;5.28;;;;;;;15.28;53.98;99719.66;10191915;29;20044;-76
2023/07/03 00:40:29;;;;;;;14.77;5.28;;;;;;;14.95;55.41;99719.69;10191289;29;20070;-75
2023/07/03 00:45:34;;;;;;;11.65;4.82;;;;;;;15.44;54.12;99711.56;10195702;29;20048;-75
2023/07/03 00:50:37;;;;;;;12.00;5.40;;;;;;;15.35;54.59;99712.56;10198246;29;20039;-76
2023/07/03 00:55:41;;;;;;;11.65;5.10;;;;;;;15.14;54.39;99725.75;10195323;29;20059;-75
2023/07/03 01:00:50;;;;;;;12.77;4.78;;;;;;;15.15;55.41;99717.47;10193499;29;20059;-75
2023/07/03 01:05:55;;;;;;;13.65;5.40;;;;;;;15.23;55.44;99701.22;10190200;29;20051;-75
2023/07/03 01:11:00;;;;;;;10.05;5.07;;;;;;;14.90;56.69;99705.00;10187349;29;20515;-75
2023/07/03 01:16:06;;;;;;;14.48;5.82;;;;;;;14.93;56.76;99707.34;10193890;29;20521;-75
2023/07/03 01:21:16;;;;;;;14.15;5.63;;;;;;;14.97;57.37;99712.22;10197555;29;20046;-76
2023/07/03 01:26:21;;;;;;;12.35;5.03;;;;;;;14.78;57.81;99707.16;10196389;29;20035;-75
2023/07/03 01:31:26;;;;;;;20.85;6.35;;;;;;;14.74;58.44;99708.53;10196864;29;20047;-76
2023/07/03 01:36:31;;;;;;;16.05;6.07;;;;;;;14.69;58.78;99700.91;10210918;28;20505;-75
2023/07/03 01:41:36;;;;;;;14.45;5.47;;;;;;;14.69;58.89;99703.59;10188416;29;20040;-75
2023/07/03 01:46:40;;;;;;;16.13;5.82;;;;;;;14.45;59.68;99707.13;10186315;29;20495;-75
2023/07/03 01:51:49;;;;;;;14.95;5.85;;;;;;;14.37;60.15;99699.81;10191141;29;20142;-75
2023/07/03 01:56:58;;;;;;;17.30;5.18;;;;;;;14.32;60.20;99704.03;10192467;29;20043;-76
2023/07/03 02:02:06;;;;;;;20.95;6.50;;;;;;;14.26;60.51;99710.06;10195214;29;20131;-75
2023/07/03 02:07:12;;;;;;;15.52;4.95;;;;;;;14.43;60.64;99692.09;10189983;29;20050;-76
2023/07/03 02:12:16;;;;;;;13.82;5.50;;;;;;;14.37;60.60;99701.66;10192660;29;20052;-76
2023/07/03 02:17:19;;;;;;;22.00;6.70;;;;;;;14.36;60.87;99702.69;10191118;29;20059;-75
2023/07/03 02:22:23;;;;;;;17.25;6.03;;;;;;;14.33;61.05;99703.00;10192465;29;20491;-75
2023/07/03 02:27:27;;;;;;;17.98;6.93;;;;;;;14.44;60.91;99702.72;10201019;29;20119;-75
2023/07/03 02:32:34;;;;;;;19.25;5.78;;;;;;;14.02;62.34;99706.31;10216132;29;20080;-75
2023/07/03 02:37:37;;;;;;;17.42;6.10;;;;;;;14.13;62.13;99702.47;10200331;29;20052;-76
2023/07/03 02:42:41;;;;;;;17.42;5.95;;;;;;;14.27;61.72;99709.94;10197075;29;20056;-75
2023/07/03 02:47:44;;;;;;;14.23;5.25;;;;;;;14.18;61.31;99708.22;10199232;29;20060;-75
2023/07/03 02:52:50;;;;;;;15.52;5.32;;;;;;;13.58;61.98;99705.59;10194286;29;20051;-75
2023/07/03 02:57:55;;;;;;;15.75;5.38;;;;;;;13.68;61.63;99695.50;10196812;29;20040;-75
2023/07/03 03:02:58;;;;;;;14.18;4.85;;;;;;;14.00;61.14;99699.38;10200181;29;20067;-75
2023/07/03 03:08:02;;;;;;;17.25;4.55;;;;;;;13.49;61.67;99693.91;10200019;29;20039;-75
2023/07/03 03:13:06;;;;;;;11.52;4.53;;;;;;;13.92;60.81;99695.63;10198341;29;20075;-75
2023/07/03 03:18:10;;;;;;;17.02;4.20;;;;;;;13.87;60.14;99707.91;10205247;29;20067;-75
2023/07/03 03:23:13;;;;;;;11.00;3.92;;;;;;;13.79;60.33;99689.00;10191064;29;20044;-75
2023/07/03 03:28:18;;;;;;;17.70;4.95;;;;;;;13.86;60.32;99692.75;10192240;29;20135;-75
2023/07/03 03:33:21;;;;;;;16.92;4.00;;;;;;;13.74;60.92;99694.91;10195395;29;20048;-75
2023/07/03 03:38:24;;;;;;;19.23;5.03;;;;;;;13.69;60.80;99703.47;10199147;29;20064;-75
2023/07/03 03:43:28;;;;;;;19.48;4.57;;;;;;;13.79;60.89;99694.38;10203055;29;20044;-75
2023/07/03 03:48:33;;;;;;;13.65;4.88;;;;;;;13.63;60.51;99696.03;10199023;29;20134;-75
2023/07/03 03:53:38;;;;;;;12.65;3.63;;;;;;;13.80;59.86;99696.09;10198421;29;20051;-75
2023/07/03 03:58:43;;;;;;;14.07;3.95;;;;;;;13.66;59.77;99687.59;10199410;29;20044;-75
2023/07/03 04:03:46;;;;;;;13.75;3.30;;;;;;;13.40;60.36;99689.47;10195363;29;20056;-76
2023/07/03 04:08:49;;;;;;;23.13;4.65;;;;;;;13.71;59.92;99679.88;10197764;29;20042;-75
2023/07/03 04:13:53;;;;;;;11.10;3.92;;;;;;;13.53;60.21;99671.00;10197306;29;20051;-75
2023/07/03 04:18:56;;;;;;;15.15;3.45;;;;;;;13.65;59.45;99663.47;10199619;29;20507;-75
2023/07/03 04:23:59;;;;;;;11.65;3.67;;;;;;;13.77;59.25;99666.69;10198143;29;20039;-75
2023/07/03 04:29:04;;;;;;;14.73;3.50;;;;;;;13.91;59.65;99672.34;10201420;29;20511;-75
2023/07/03 04:34:07;;;;;;;14.57;4.50;;;;;;;14.24;59.04;99682.41;10191005;29;20040;-75
2023/07/03 04:39:09;;;;;;;16.73;4.70;;;;;;;14.14;59.01;99691.47;10189490;29;20044;-75
2023/07/03 04:44:14;;;;;;;18.63;4.47;;;;;;;13.81;60.39;99695.91;10195259;29;20419;-75
2023/07/03 04:49:16;;;;;;;17.98;4.47;;;;;;;13.90;60.22;99694.09;10198605;29;20044;-75
2023/07/03 04:54:20;;;;;;;16.17;3.75;;;;;;;14.07;59.77;99708.50;10199540;29;20044;-75
2023/07/03 04:59:31;;;;;;;15.23;4.60;;;;;;;13.86;59.87;99715.19;10503261;27;20394;-75
2023/07/03 05:04:33;;;;;;;17.33;3.30;;;;;;;13.81;60.48;99731.00;10491785;28;20037;-76
2023/07/03 05:09:36;;;;;;;18.00;4.47;;;;;;;14.24;59.35;99729.16;10480284;28;20527;-76
2023/07/03 05:14:40;;;;;;;16.13;4.20;;;;;;;14.12;59.47;99722.34;10485096;28;20040;-75
2023/07/03 05:19:43;;;;;;;16.50;4.38;;;;;;;14.11;59.45;99734.19;10498179;28;20484;-76
2023/07/03 05:24:46;;;;;;;19.20;6.10;;;;;;;14.29;59.29;99726.81;10495875;28;20040;-76
2023/07/03 05:29:51;;;;;;;17.92;4.43;;;;;;;14.38;58.65;99739.38;10494427;28;20579;-76
2023/07/03 05:34:54;;;;;;;16.17;4.38;;;;;;;14.48;59.22;99732.97;10490330;28;20045;-76
2023/07/03 05:39:56;;;;;;;16.33;4.75;;;;;;;14.16;59.99;99738.09;10494509;28;20049;-76
2023/07/03 05:45:00;;;;;;;16.48;3.70;;;;;;;14.19;60.03;99736.06;10486624;28;20037;-76
2023/07/03 05:50:04;;;;;;;10.95;3.38;;;;;;;13.85;60.71;99750.41;10486054;28;20044;-76
2023/07/03 05:55:07;;;;;;;20.60;4.57;;;;;;;14.07;60.73;99746.31;10490578;28;20439;-77
2023/07/03 06:00:13;;;;;;;19.40;5.70;;;;;;;14.30;60.49;99749.28;10494106;28;20044;-74
2023/07/03 06:05:20;;;;;;;14.48;3.63;;;;;;;13.58;62.06;99764.97;10482339;28;20050;-74
2023/07/03 06:10:24;;;;;;;14.57;3.92;;;;;;;13.81;61.70;99762.56;10460051;28;20555;-75
2023/07/03 06:15:28;;;;;;;14.65;3.70;;;;;;;13.68;62.95;99747.63;10460533;28;20055;-75
2023/07/03 06:20:32;;;;;;;22.65;4.97;;;;;;;14.25;61.65;99749.75;10468080;28;20113;-75
2023/07/03 06:25:35;;;;;;;22.27;4.75;;;;;;;14.25;61.51;99755.16;10465346;28;20029;-75
2023/07/03 06:30:39;;;;;;;19.35;5.47;;;;;;;14.52;61.12;99764.06;10456426;28;20051;-75
2023/07/03 06:35:42;;;;;;;21.25;6.32;;;;;;;14.67;61.21;99766.94;10464813;28;20072;-76
2023/07/03 06:40:55;;;;;;;19.70;4.85;;;;;;;15.14;60.02;99760.91;10465432;28;20040;-76
2023/07/03 06:45:59;;;;;;;18.02;6.00;;;;;;;14.91;61.15;99767.00;10452876;28;20408;-75
2023/07/03 06:51:04;;;;;;;27.73;6.07;;;;;;;14.92;61.51;99778.66;10447090;28;20048;-75
2023/07/03 06:56:08;;;;;;;35.83;6.28;;;;;;;14.49;63.00;99772.50;10443359;28;20083;-75
2023/07/03 07:01:14;;;;;;;22.70;6.35;;;;;;;14.48;63.89;99787.88;10463537;28;20044;-75
2023/07/03 07:06:22;;;;;;;27.85;6.85;;;;;;;13.94;66.90;99787.28;10446013;28;20037;-75
2023/07/03 07:11:27;;;;;;;17.23;5.47;;;;;;;13.97;69.93;99786.94;10449090;28;20045;-75
2023/07/03 07:16:33;;;;;;;28.95;7.63;;;;;;;13.90;70.56;99789.44;10453499;28;20037;-75
2023/07/03 07:21:39;;;;;;;30.88;7.43;;;;;;;14.37;69.32;99788.13;10468174;28;20036;-75
2023/07/03 07:26:42;;;;;;;19.45;5.15;;;;;;;15.67;64.41;99775.78;10439978;28;20044;-75
2023/07/03 07:31:46;;;;;;;20.38;5.13;;;;;;;16.09;61.59;99778.19;10450483;28;20045;-75
2023/07/03 07:36:49;;;;;;;27.42;7.15;;;;;;;16.67;58.76;99772.53;10444216;28;20044;-75
2023/07/03 07:41:52;;;;;;;24.73;6.05;;;;;;;16.25;59.07;99771.03;10445752;28;20500;-75
2023/07/03 07:46:56;;;;;;;19.25;5.40;;;;;;;17.04;56.67;99783.47;10459163;28;20037;-75
2023/07/03 07:51:59;;;;;;;20.88;6.15;;;;;;;16.61;57.58;99763.25;10464388;28;20049;-75
2023/07/03 07:57:02;;;;;;;14.13;4.57;;;;;;;17.53;54.71;99771.38;10457914;28;20480;-75
2023/07/03 08:02:07;;;;;;;20.95;4.78;;;;;;;18.09;54.00;99776.41;10456083;28;20547;-75
2023/07/03 08:07:10;;;;;;;21.00;5.32;;;;;;;18.36;53.25;99785.75;10458848;28;20037;-75
2023/07/03 08:12:13;;;;;;;13.90;3.92;;;;;;;17.70;53.94;99777.50;10452384;28;20541;-75
2023/07/03 08:17:18;;;;;;;21.25;5.57;;;;;;;17.88;55.24;99791.56;10452938;28;20048;-72
2023/07/03 08:22:20;;;;;;;24.05;5.82;;;;;;;18.07;53.13;99763.03;10452853;28;20080;-75
2023/07/03 08:27:23;;;;;;;19.83;6.03;;;;;;;17.65;53.98;99758.19;10458344;28;20519;-75
2023/07/03 08:32:27;;;;;;;23.50;5.78;;;;;;;17.01;56.10;99769.44;10453839;28;20048;-75
2023/07/03 08:37:30;;;;;;;16.23;5.28;;;;;;;15.85;58.58;99779.13;10450021;28;20036;-76
2023/07/03 08:42:38;;;;;;;20.40;5.43;;;;;;;15.73;59.05;99785.94;10448839;28;20519;-76
2023/07/03 08:47:44;;;;;;;17.55;6.07;;;;;;;15.63;59.04;99798.78;10459706;28;20411;-73
2023/07/03 08:52:52;;;;;;;12.23;4.40;;;;;;;15.00;60.62;99814.69;10454221;28;20068;-73
2023/07/03 08:57:55;;;;;;;12.65;5.05;;;;;;;14.35;63.79;99839.63;10450535;28;20044;-74
2023/07/03 09:03:05;;;;;;;16.67;5.85;;;;;;;13.71;69.95;99828.31;10450378;28;20037;-74
2023/07/03 09:08:21;;;;;;;21.30;7.43;;;;;;;14.58;66.76;99833.66;10447228;28;20066;-75
2023/07/03 09:13:28;;;;;;;16.20;5.18;;;;;;;15.66;61.64;99817.41;10455621;28;20071;-75
2023/07/03 09:18:37;;;;;;;15.18;6.75;;;;;;;16.97;57.75;99800.63;10466764;28;20037;-75
2023/07/03 09:23:49;;;;;;;15.07;4.55;;;;;;;16.63;57.05;99818.16;10465826;28;20415;-74
2023/07/03 09:28:57;;;;;;;13.45;4.47;;;;;;;16.62;56.80;99823.72;10456819;28;20048;-74
2023/07/03 09:34:01;;;;;;;13.25;5.32;;;;;;;17.48;54.32;99822.69;10458721;28;20052;-75
2023/07/03 09:39:10;;;;;;;16.63;5.43;;;;;;;18.02;52.60;99819.81;10462748;28;20411;-75
2023/07/03 09:44:15;;;;;;;9.57;4.18;;;;;;;18.36;51.58;99831.97;10468532;28;20558;-75
2023/07/03 09:49:24;;;;;;;20.48;5.85;;;;;;;17.89;51.88;99839.44;10469975;28;20029;-75
2023/07/03 09:54:29;;;;;;;16.02;5.15;;;;;;;18.20;52.21;99841.16;10467309;28;20503;-75
2023/07/03 09:59:33;;;;;;;15.38;5.30;;;;;;;18.77;51.30;99839.63;10459739;28;20037;-75
2023/07/03 10:04:45;;;;;;;13.65;3.47;;;;;;;19.20;48.14;99848.72;10468957;28;20094;-74
2023/07/03 10:09:52;;;;;;;9.50;3.35;;;;;;;19.11;45.93;99832.69;10465988;28;20098;-75
2023/07/03 10:15:02;;;;;;;11.60;3.38;;;;;;;19.06;45.94;99844.19;10462338;28;20075;-75
2023/07/03 10:20:10;;;;;;;12.18;4.38;;;;;;;19.68;46.52;99835.34;10465995;28;20050;-75
2023/07/03 10:25:18;;;;;;;11.70;2.83;;;;;;;19.29;44.38;99837.69;10459240;28;20065;-75
2023/07/03 10:30:21;;;;;;;11.60;3.25;;;;;;;18.39;46.24;99850.63;10460234;28;20074;-75
2023/07/03 10:35:28;;;;;;;9.73;3.00;;;;;;;17.63;47.90;99858.00;10465717;28;20041;-75
2023/07/03 10:40:37;;;;;;;9.95;3.35;;;;;;;17.63;48.75;99863.44;10466615;28;20410;-74
2023/07/03 10:45:40;;;;;;;10.82;2.58;;;;;;;16.68;48.17;99869.16;10464146;28;20102;-74
2023/07/03 10:50:52;;;;;;;10.23;2.40;;;;;;;17.55;47.37;99861.66;10460267;28;20492;-74
2023/07/03 10:56:00;;;;;;;;;;;;;;;18.52;46.50;99858.97;10455032;28;20044;-74
2023/07/03 11:01:11;;;;;;;9.60;2.28;;;;;;;18.08;46.42;99873.41;10465094;28;19920;-75
2023/07/03 11:06:25;;;;;;;9.85;1.77;;;;;;;18.92;45.94;99870.38;10464795;28;20065;-74
2023/07/03 11:11:36;;;;;;;6.95;2.28;;;;;;;20.43;43.57;99841.13;10459374;28;20041;-74
2023/07/03 11:16:55;;;;;;;7.22;2.45;;;;;;;19.37;43.46;99871.06;10463816;28;20569;-75
2023/07/03 11:22:09;;;;;;;10.60;2.90;;;;;;;18.15;46.06;99868.06;10461908;28;20055;-76
2023/07/03 11:27:25;;;;;;;11.57;2.63;;;;;;;18.19;47.51;99863.94;10458054;28;20067;-75
2023/07/03 11:32:34;;;;;;;10.32;2.60;;;;;;;17.74;47.40;99865.72;10455174;28;20454;-75
2023/07/03 11:37:46;;;;;;;11.50;3.05;;;;;;;17.83;48.09;99877.38;10456756;28;20056;-75
2023/07/03 11:43:15;;;;;;;9.23;2.92;;;;;;;17.65;48.29;99866.81;10468100;28;20033;-75
2023/07/03 11:48:27;;;;;;;8.50;2.92;;;;;;;17.43;49.53;99853.06;10461502;28;20067;-75
2023/07/03 11:53:36;;;;;;;15.95;2.72;;;;;;;17.68;48.96;99874.59;10458947;28;20056;-75
2023/07/03 11:58:39;;;;;;;15.15;3.22;;;;;;;17.95;48.23;99873.16;10461247;28;20082;-76
2023/07/03 12:03:53;;;;;;;10.88;3.38;;;;;;;17.39;48.98;99889.78;10454277;28;20557;-75
2023/07/03 12:09:29;;;;;;;8.23;2.80;;;;;;;17.92;48.06;99877.09;10450336;28;20049;-75
2023/07/03 12:14:53;;;;;;;10.45;3.38;;;;;;;17.85;47.23;99888.88;10455935;28;20045;-75
2023/07/03 12:20:05;;;;;;;10.48;2.90;;;;;;;16.97;48.80;99876.59;10457497;28;20036;-75
2023/07/03 12:25:11;;;;;;;11.60;3.60;;;;;;;16.81;49.99;99901.94;10455526;28;20045;-75
2023/07/03 12:30:23;;;;;;;12.07;3.60;;;;;;;17.34;49.43;99894.06;10459446;28;20091;-75
2023/07/03 12:35:28;;;;;;;9.63;3.13;;;;;;;19.40;46.24;99883.47;10461066;28;20045;-76
2023/07/03 12:40:33;;;;;;;8.75;2.78;;;;;;;19.41;45.46;99879.69;10452847;28;20064;-75
2023/07/03 12:45:36;;;;;;;12.90;3.75;;;;;;;19.17;46.60;99889.94;10450954;28;20033;-75
2023/07/03 12:50:47;;;;;;;9.60;3.95;;;;;;;20.47;44.90;99869.66;10451575;28;20120;-75
2023/07/03 12:55:55;;;;;;;;;;;;;;;22.19;41.44;99870.25;10456707;28;20040;-76
2023/07/03 13:01:00;;;;;;;11.32;3.90;;;;;;;21.50;41.34;99858.66;10455516;28;19928;-75
2023/07/03 13:06:03;;;;;;;12.90;3.28;;;;;;;21.22;43.17;99845.19;10459008;28;20419;-75
2023/07/03 13:11:08;;;;;;;17.88;4.68;;;;;;;21.08;42.68;99851.69;10455322;28;20037;-74
2023/07/03 13:16:15;;;;;;;12.73;3.95;;;;;;;20.11;44.32;99851.59;10452209;28;20533;-74
2023/07/03 13:21:20;;;;;;;12.02;3.42;;;;;;;19.57;45.17;99854.13;10453272;28;20053;-74
2023/07/03 13:26:26;;;;;;;16.33;3.63;;;;;;;18.26;47.70;99854.00;10453879;28;20049;-74
2023/07/03 13:31:31;;;;;;;15.88;3.88;;;;;;;18.18;48.59;99840.50;10461877;28;20041;-73
2023/07/03 13:37:04;;;;;;;15.35;3.72;;;;;;;18.23;48.73;99842.66;10465189;28;20040;-74
2023/07/03 13:42:10;;;;;;;21.42;3.90;;;;;;;17.53;49.00;99841.97;10468433;28;20037;-75
2023/07/03 13:47:13;;;;;;;17.98;3.88;;;;;;;19.18;45.82;99820.84;10460017;28;20041;-75
2023/07/03 13:52:16;;;;;;;20.65;3.45;;;;;;;21.00;42.25;99831.66;10465336;28;20049;-76
2023/07/03 13:57:20;;;;;;;10.18;2.97;;;;;;;21.10;41.23;99834.03;10462953;28;20042;-75
2023/07/03 14:02:23;;;;;;;9.98;3.28;;;;;;;20.57;39.79;99847.50;10464739;28;20048;-75
2023/07/03 14:07:44;;;;;;;12.95;2.78;;;;;;;19.34;42.36;99835.22;10463113;28;20114;-73
2023/07/03 14:12:48;;;;;;;9.57;2.45;;;;;;;18.89;42.88;99829.09;10453885;28;20040;-75
2023/07/03 14:17:51;;;;;;;7.78;2.97;;;;;;;19.17;42.51;99826.47;10454156;28;20052;-75
2023/07/03 14:22:55;;;;;;;11.10;3.03;;;;;;;19.85;41.35;99829.59;10453595;28;20068;-75
2023/07/03 14:27:59;;;;;;;12.48;3.25;;;;;;;20.00;41.25;99830.34;10454646;28;20037;-75
2023/07/03 14:33:02;;;;;;;9.43;3.22;;;;;;;19.30;42.88;99825.75;10448047;28;20040;-75
2023/07/03 14:38:06;;;;;;;10.45;4.03;;;;;;;20.05;42.77;99816.97;10453420;28;20066;-75
2023/07/03 14:43:10;;;;;;;13.07;3.25;;;;;;;19.43;43.57;99815.00;10451292;28;20041;-75
2023/07/03 14:48:13;;;;;;;8.23;3.80;;;;;;;18.94;44.11;99818.47;10453278;28;20040;-73
2023/07/03 14:53:16;;;;;;;8.75;3.05;;;;;;;19.08;44.55;99823.03;10452842;28;20052;-75
2023/07/03 14:58:20;;;;;;;11.18;4.07;;;;;;;18.70;45.14;99822.34;10460630;28;20578;-74
2023/07/03 15:03:23;;;;;;;11.88;4.03;;;;;;;18.32;45.77;99822.50;10467114;28;20045;-74
2023/07/03 15:08:26;;;;;;;7.85;2.22;;;;;;;17.80;45.47;99817.94;10464584;28;20136;-75
2023/07/03 15:13:31;;;;;;;6.90;2.90;;;;;;;18.07;45.03;99830.97;10463206;28;20636;-76
2023/07/03 15:18:34;;;;;;;15.75;3.17;;;;;;;17.88;46.06;99835.03;10455745;28;20495;-76
2023/07/03 15:23:37;;;;;;;17.08;3.70;;;;;;;17.97;46.41;99813.22;10453096;28;20071;-76
2023/07/03 15:28:41;;;;;;;9.95;4.20;;;;;;;18.45;46.30;99814.53;10452853;28;20037;-75
2023/07/03 15:33:44;;;;;;;16.30;4.82;;;;;;;18.19;46.70;99814.19;10458373;28;20044;-76
2023/07/03 15:38:47;;;;;;;14.27;3.78;;;;;;;18.18;46.58;99826.06;10453559;28;20048;-76
2023/07/03 15:43:52;;;;;;;9.10;3.88;;;;;;;18.31;46.98;99812.66;10464398;28;20131;-77
2023/07/03 15:48:55;;;;;;;10.32;3.95;;;;;;;18.66;46.09;99808.31;10456948;28;20080;-76
2023/07/03 15:53:58;;;;;;;11.00;4.18;;;;;;;18.87;46.16;99812.97;10475727;28;20515;-76
2023/07/03 15:59:03;;;;;;;12.18;3.85;;;;;;;18.98;45.60;99819.81;10466356;28;20547;-76
2023/07/03 16:04:05;;;;;;;14.30;3.90;;;;;;;18.73;45.68;99824.69;10464769;28;20044;-76
2023/07/03 16:09:08;;;;;;;9.88;3.92;;;;;;;18.67;45.40;99829.03;10479032;28;20108;-75
2023/07/03 16:14:13;;;;;;;10.63;3.53;;;;;;;18.29;46.08;99821.03;10460059;28;20049;-75
2023/07/03 16:19:16;;;;;;;10.13;3.22;;;;;;;18.04;46.02;99819.59;10460435;28;20044;-76
2023/07/03 16:24:18;;;;;;;9.65;3.95;;;;;;;18.45;46.59;99836.28;10464364;28;20043;-76
2023/07/03 16:29:23;;;;;;;10.75;3.63;;;;;;;18.13;46.56;99834.81;10460757;28;20131;-74
2023/07/03 16:34:26;;;;;;;13.65;3.97;;;;;;;18.95;45.68;99837.34;10459615;28;20111;-74
2023/07/03 16:39:29;;;;;;;12.82;3.53;;;;;;;18.36;46.14;99835.53;10460286;28;20033;-73
2023/07/03 16:44:33;;;;;;;18.35;4.18;;;;;;;18.43;46.46;99832.06;10447786;28;20500;-74
2023/07/03 16:49:36;;;;;;;11.10;3.08;;;;;;;18.41;46.93;99831.44;10444500;28;20051;-74
2023/07/03 16:54:39;;;;;;;15.43;4.53;;;;;;;18.55;46.62;99830.56;10439463;28;20487;-74
2023/07/03 16:59:43;;;;;;;9.95;3.67;;;;;;;18.20;47.41;99837.59;10433649;28;20044;-74
2023/07/03 17:04:46;;;;;;;7.78;3.38;;;;;;;18.22;46.70;99827.41;10464501;28;20045;-74
2023/07/03 17:09:49;;;;;;;10.50;4.07;;;;;;;18.57;46.80;99823.91;10453142;28;20123;-74
2023/07/03 17:14:53;;;;;;;15.02;3.75;;;;;;;18.25;47.41;99825.13;10450615;28;20048;-74
2023/07/03 17:19:56;;;;;;;13.25;3.47;;;;;;;18.29;47.31;99821.03;10445301;28;20049;-74
2023/07/03 17:24:59;;;;;;;13.77;3.97;;;;;;;17.89;47.47;99814.97;10445238;28;20049;-74
2023/07/03 17:30:04;;;;;;;11.77;3.78;;;;;;;17.84;47.61;99811.13;10441403;28;20052;-75
2023/07/03 17:35:08;;;;;;;11.18;3.10;;;;;;;18.06;47.04;99812.13;10454270;28;20515;-75
2023/07/03 17:40:12;;;;;;;12.20;3.90;;;;;;;18.01;47.13;99806.41;10455628;28;20190;-75
2023/07/03 17:45:16;;;;;;;7.80;3.53;;;;;;;17.79;47.27;99799.97;10462895;28;20045;-74
2023/07/03 17:50:21;;;;;;;11.30;3.15;;;;;;;18.08;46.99;99796.47;10448612;28;20087;-73
2023/07/03 17:55:25;;;;;;;9.35;3.80;;;;;;;17.99;47.00;99797.59;10454689;28;20575;-75
2023/07/03 18:00:29;;;;;;;11.45;3.80;;;;;;;17.81;47.55;99787.91;10451044;28;20115;-75
2023/07/03 18:05:34;;;;;;;6.75;3.45;;;;;;;17.89;46.95;99787.81;10449145;28;20052;-75
2023/07/03 18:10:37;;;;;;;10.55;3.50;;;;;;;17.90;47.48;99784.06;10466212;28;20029;-74
2023/07/03 18:15:42;;;;;;;11.90;3.60;;;;;;;17.93;47.59;99788.28;10467823;28;20037;-74
2023/07/03 18:20:56;;;;;;;10.35;3.10;;;;;;;17.99;47.15;99778.56;10462461;28;20047;-74
2023/07/03 18:25:59;;;;;;;14.05;3.42;;;;;;;18.08;47.05;99780.16;10458231;28;20047;-75
2023/07/03 18:31:04;;;;;;;15.25;3.03;;;;;;;17.93;46.92;99775.53;10459016;28;20430;-75
2023/07/03 18:36:07;;;;;;;12.38;3.92;;;;;;;17.64;47.58;99770.09;10469823;28;20098;-76
2023/07/03 18:41:10;;;;;;;8.43;3.20;;;;;;;17.85;47.54;99778.38;10450709;28;20033;-74
2023/07/03 18:46:15;;;;;;;8.23;3.20;;;;;;;17.92;47.53;99783.88;10452505;28;20470;-75
2023/07/03 18:51:22;;;;;;;8.32;3.10;;;;;;;17.75;47.68;99777.78;10452058;28;20349;-75
2023/07/03 18:56:25;;;;;;;16.08;4.55;;;;;;;17.88;47.74;99790.69;10467377;28;20495;-75
2023/07/03 19:01:30;;;;;;;11.23;3.28;;;;;;;17.67;48.46;99777.88;10472180;28;20037;-74
2023/07/03 19:06:33;;;;;;;8.95;3.00;;;;;;;17.57;48.09;99780.00;10458401;28;20056;-75
2023/07/03 19:11:40;;;;;;;9.40;3.13;;;;;;;17.58;48.08;99774.41;10465517;28;20045;-75
2023/07/03 19:16:44;;;;;;;9.57;3.15;;;;;;;17.64;47.75;99767.38;10461540;28;20431;-75
2023/07/03 19:21:47;;;;;;;10.02;3.03;;;;;;;17.70;47.59;99772.06;10464504;28;20051;-74
2023/07/03 19:26:50;;;;;;;10.45;2.95;;;;;;;17.65;47.68;99771.78;10458767;28;20041;-74
2023/07/03 19:31:55;;;;;;;11.02;3.10;;;;;;;17.62;47.79;99774.84;10471272;28;20041;-75
2023/07/03 19:36:59;;;;;;;16.75;3.45;;;;;;;17.59;47.57;99767.94;10461545;28;20041;-74
2023/07/03 19:42:02;;;;;;;14.45;3.60;;;;;;;17.58;47.57;99766.25;10474796;28;20101;-74
2023/07/03 19:47:06;;;;;;;13.13;3.90;;;;;;;17.56;47.70;99770.19;10479225;28;20045;-74
2023/07/03 19:52:10;;;;;;;11.18;3.05;;;;;;;17.49;47.81;99772.78;10459786;28;20068;-74
2023/07/03 19:57:13;;;;;;;11.52;3.63;;;;;;;17.53;47.60;99756.97;10453616;28;20049;-73
2023/07/03 20:02:18;;;;;;;11.10;3.40;;;;;;;17.53;47.65;99760.53;10459572;28;20047;-74
2023/07/03 20:07:21;;;;;;;11.55;3.95;;;;;;;17.46;48.07;99754.97;10448543;28;20098;-74
2023/07/03 20:12:24;;;;;;;11.27;3.47;;;;;;;17.47;48.23;99753.97;10451838;28;20072;-75
2023/07/03 20:17:29;;;;;;;15.32;4.07;;;;;;;17.37;48.50;99755.25;10459232;28;20044;-75
2023/07/03 20:22:34;;;;;;;9.07;3.35;;;;;;;17.37;48.60;99750.66;10454740;28;20033;-75
2023/07/03 20:27:38;;;;;;;13.50;4.00;;;;;;;17.34;49.16;99742.06;10452965;28;20055;-74
2023/07/03 20:32:43;;;;;;;14.00;3.72;;;;;;;17.24;49.47;99745.00;10452255;28;20041;-74
2023/07/03 20:37:46;;;;;;;14.50;4.07;;;;;;;17.18;49.63;99746.59;10455189;28;20044;-74
2023/07/03 20:42:49;;;;;;;11.20;3.88;;;;;;;17.15;49.77;99743.41;10460241;28;20041;-75
2023/07/03 20:47:54;;;;;;;11.93;4.28;;;;;;;17.06;49.81;99737.19;10450849;28;20089;-74
2023/07/03 20:53:09;;;;;;;14.68;4.28;;;;;;;17.06;50.01;99729.03;10450280;28;20040;-74
2023/07/03 20:58:12;;;;;;;13.45;3.95;;;;;;;17.11;50.09;99736.59;10452220;28;20435;-75
2023/07/03 21:03:19;;;;;;;16.98;5.25;;;;;;;17.16;50.57;99736.94;10453090;28;20060;-74
2023/07/03 21:08:22;;;;;;;12.65;4.15;;;;;;;17.07;50.53;99727.16;10450288;28;20554;-74
2023/07/03 21:13:25;;;;;;;17.40;4.70;;;;;;;16.81;50.86;99733.78;10448179;28;20044;-74
2023/07/03 21:18:30;;;;;;;15.57;4.60;;;;;;;16.96;50.63;99729.28;10448485;28;20044;-74
2023/07/03 21:23:33;;;;;;;11.68;3.80;;;;;;;16.86;50.56;99725.97;10452811;28;20061;-73
2023/07/03 21:28:36;;;;;;;13.27;4.55;;;;;;;16.93;50.53;99716.06;10459329;28;20514;-74
2023/07/03 21:33:40;;;;;;;14.23;4.90;;;;;;;16.78;50.73;99729.59;10455048;28;20121;-74
2023/07/03 21:38:43;;;;;;;14.52;4.43;;;;;;;16.90;50.58;99721.88;10457560;28;20041;-74
2023/07/03 21:43:50;;;;;;;17.77;5.05;;;;;;;16.94;50.39;99715.03;10466371;28;20089;-75
2023/07/03 21:48:56;;;;;;;12.52;4.30;;;;;;;16.94;50.29;99719.63;10463009;28;20049;-74
2023/07/03 21:54:00;;;;;;;18.48;5.63;;;;;;;17.03;50.32;99705.81;10458319;28;20449;-75
2023/07/03 21:59:05;;;;;;;17.90;5.32;;;;;;;17.07;50.10;99706.28;10461530;28;20041;-75
2023/07/03 22:04:09;;;;;;;14.48;5.20;;;;;;;16.91;50.29;99709.16;10466016;28;20032;-75
2023/07/03 22:09:12;;;;;;;20.38;5.97;;;;;;;16.74;50.76;99713.84;10468717;28;20048;-75
2023/07/03 22:14:24;;;;;;;11.00;4.50;;;;;;;16.59;50.69;99719.19;10471556;28;20037;-75
2023/07/03 22:19:28;;;;;;;11.82;5.07;;;;;;;16.56;51.19;99722.28;10460266;28;20060;-74
2023/07/03 22:24:31;;;;;;;17.58;5.60;;;;;;;16.58;50.99;99718.34;10461736;28;20041;-75
2023/07/03 22:29:34;;;;;;;17.98;5.78;;;;;;;16.57;51.71;99729.41;10458063;28;20037;-74
2023/07/03 22:34:38;;;;;;;15.40;5.28;;;;;;;16.58;51.55;99726.50;10461055;28;20102;-74
2023/07/03 22:39:41;;;;;;;11.52;4.75;;;;;;;16.19;52.28;99731.94;10461341;28;20079;-75
2023/07/03 22:44:44;;;;;;;17.00;6.15;;;;;;;16.11;52.46;99724.69;10454629;28;20037;-75
2023/07/03 22:49:48;;;;;;;20.00;5.28;;;;;;;16.22;51.78;99734.28;10461548;28;20046;-75
2023/07/03 22:54:51;;;;;;;8.75;4.32;;;;;;;16.32;51.65;99740.38;10460731;28;20048;-75
2023/07/03 22:59:55;;;;;;;11.98;5.65;;;;;;;16.27;51.65;99736.53;10459199;28;20130;-74
2023/07/03 23:04:59;;;;;;;18.25;4.22;;;;;;;16.02;51.79;99722.22;10446065;28;20048;-75
2023/07/03 23:10:02;;;;;;;9.65;3.80;;;;;;;16.36;50.71;99736.28;10463180;28;20077;-73
2023/07/03 23:15:05;;;;;;;10.38;3.28;;;;;;;16.04;51.48;99741.81;10459332;28;20048;-75
2023/07/03 23:20:11;;;;;;;9.77;2.90;;;;;;;16.05;51.01;99741.66;10462712;28;20041;-74
2023/07/03 23:25:14;;;;;;;10.93;3.60;;;;;;;15.97;51.39;99749.81;10451636;28;20536;-74
2023/07/03 23:30:17;;;;;;;13.27;3.75;;;;;;;16.15;51.40;99739.59;10461261;28;20454;-75